Morforte De Lemos, Spain
Current Conditions -  °F | °C
As of 9:30 PM on Thursday 20 Nov 2014 (Local Time) from LEST Reporting Station
Clear Clear  
Wind Chill: 13°   Ceiling: Unl
Heat Index: 13°   Visibility: 6mi
Dew Point: 11°   Wind: 3mph
Humidity: 88%   Direction: 180°S
Pressure: 29.94"   Gusts: NA
Location:  42.52°N, 7.5°W
Report Text: LEST 202030Z 18003KT CAVOK 13/11 Q1014 NOSIG
Loading
Personal Weather Stations






























Interactive Weather Map New forecast layout! Learn more

10-Day Weather Forecast

Advertisements
Track Severe Weather on mobile